createdAt,value
2024-05-09T00:00:45.197Z,693.27
2024-05-09T00:01:40.100Z,693.25
2024-05-09T00:02:35.308Z,693.21
2024-05-09T00:03:30.568Z,693.25
2024-05-09T00:04:25.924Z,693.25
2024-05-09T00:05:21.084Z,693.27
2024-05-09T00:06:16.268Z,693.27
2024-05-09T00:07:11.292Z,693.25
2024-05-09T00:08:06.575Z,693.21
2024-05-09T00:09:01.763Z,693.23
2024-05-09T00:09:56.958Z,693.21
2024-05-09T00:10:52.401Z,693.25
2024-05-09T00:11:47.434Z,693.25
2024-05-09T00:12:42.547Z,693.25
2024-05-09T00:13:37.760Z,693.27
2024-05-09T00:14:32.997Z,693.29
2024-05-09T00:15:28.174Z,693.33
2024-05-09T00:16:23.359Z,693.27
2024-05-09T00:17:18.605Z,693.27
2024-05-09T00:18:14.011Z,693.25
2024-05-09T00:19:09.384Z,693.21
2024-05-09T00:20:10.917Z,693.21
2024-05-09T00:21:00.713Z,693.17
2024-05-09T00:21:54.618Z,693.23
2024-05-09T00:22:49.836Z,693.25
2024-05-09T00:23:45.053Z,693.29
2024-05-09T00:24:40.211Z,693.23
2024-05-09T00:25:35.709Z,693.21
2024-05-09T00:26:30.554Z,693.19
2024-05-09T00:27:25.741Z,693.19
2024-05-09T00:28:20.951Z,693.17
2024-05-09T00:29:16.375Z,693.19
2024-05-09T00:30:17.505Z,693.19
2024-05-09T00:31:07.735Z,693.15
2024-05-09T00:32:01.989Z,693.15
2024-05-09T00:32:57.241Z,693.15
2024-05-09T00:33:52.558Z,693.15
2024-05-09T00:34:47.547Z,693.15
2024-05-09T00:35:42.768Z,693.15
2024-05-09T00:36:37.936Z,693.15
2024-05-09T00:37:33.126Z,693.17
2024-05-09T00:38:28.374Z,693.17
2024-05-09T00:39:23.733Z,693.13
2024-05-09T00:40:27.163Z,693.11
2024-05-09T00:41:18.028Z,693.01
2024-05-09T00:42:09.189Z,693.01
2024-05-09T00:43:04.370Z,693.01
2024-05-09T00:43:59.598Z,692.99
2024-05-09T00:44:54.768Z,692.97
2024-05-09T00:45:49.944Z,692.97
2024-05-09T00:46:45.191Z,693.01
2024-05-09T00:47:40.613Z,693.05
2024-05-09T00:48:35.870Z,693.05
2024-05-09T00:49:31.019Z,693.07
2024-05-09T00:50:34.057Z,693.11
2024-05-09T00:51:22.410Z,693.09
2024-05-09T00:52:16.508Z,693.11
2024-05-09T00:53:12.652Z,693.11
2024-05-09T00:54:07.092Z,693.09
2024-05-09T00:55:02.141Z,693.11
2024-05-09T00:55:57.324Z,693.11
2024-05-09T00:56:52.524Z,693.11
2024-05-09T00:57:47.692Z,693.11
2024-05-09T00:58:42.939Z,693.11
2024-05-09T00:59:38.215Z,693.11
2024-05-09T01:00:39.012Z,693.09
2024-05-09T01:01:29.764Z,693.09
2024-05-09T01:02:23.834Z,693.09
2024-05-09T01:03:19.499Z,693.11
2024-05-09T01:04:14.138Z,693.11
2024-05-09T01:05:09.420Z,693.11
2024-05-09T01:06:04.465Z,693.11
2024-05-09T01:06:59.669Z,693.13
2024-05-09T01:07:54.919Z,693.09
2024-05-09T01:08:50.189Z,693.05
2024-05-09T01:09:45.246Z,693.03
2024-05-09T01:10:43.681Z,693.03
2024-05-09T01:11:35.892Z,693.03
2024-05-09T01:12:31.054Z,693.05
2024-05-09T01:13:26.096Z,693.05
2024-05-09T01:14:21.340Z,693.05
2024-05-09T01:15:16.524Z,693.03
2024-05-09T01:16:11.664Z,693.01
2024-05-09T01:17:06.964Z,693.03
2024-05-09T01:18:02.550Z,692.99
2024-05-09T01:18:57.352Z,693.03
2024-05-09T01:19:52.598Z,692.97
2024-05-09T01:20:47.650Z,693.01
2024-05-09T01:21:42.973Z,693.05
2024-05-09T01:22:38.036Z,693.07
2024-05-09T01:23:33.326Z,693.09
2024-05-09T01:24:28.478Z,693.09
2024-05-09T01:25:23.666Z,693.07
2024-05-09T01:26:18.898Z,693.15
2024-05-09T01:27:14.080Z,693.17
2024-05-09T01:28:09.256Z,693.15
2024-05-09T01:29:04.503Z,693.13
2024-05-09T01:29:59.694Z,693.13
2024-05-09T01:30:54.866Z,693.09
2024-05-09T01:31:50.205Z,693.09
2024-05-09T01:32:45.341Z,693.11
2024-05-09T01:33:40.567Z,693.11
2024-05-09T01:34:35.731Z,693.13
2024-05-09T01:35:30.947Z,693.13
2024-05-09T01:36:26.122Z,693.15
2024-05-09T01:37:21.328Z,693.15
2024-05-09T01:38:16.534Z,693.15
2024-05-09T01:39:11.720Z,693.13
2024-05-09T01:40:11.982Z,693.17
2024-05-09T01:41:03.114Z,693.13
2024-05-09T01:41:57.223Z,693.15
2024-05-09T01:42:52.393Z,693.15
2024-05-09T01:43:47.601Z,693.13
2024-05-09T01:44:42.803Z,693.11
2024-05-09T01:45:37.990Z,693.13
2024-05-09T01:46:33.304Z,693.15
2024-05-09T01:47:28.553Z,693.11
2024-05-09T01:48:23.740Z,693.11
2024-05-09T01:49:19.128Z,693.09
2024-05-09T01:51:09.309Z,693.11
2024-05-09T01:52:04.389Z,693.13
2024-05-09T01:52:59.597Z,693.13
2024-05-09T01:53:54.771Z,693.11
2024-05-09T01:54:49.973Z,693.03
2024-05-09T01:55:45.293Z,693.01
2024-05-09T01:56:40.500Z,693.01
2024-05-09T01:57:35.582Z,693.09
2024-05-09T01:58:30.761Z,693.09
2024-05-09T01:59:26.036Z,693.09
2024-05-09T02:00:30.258Z,693.13
2024-05-09T02:01:17.607Z,693.11
2024-05-09T02:02:11.950Z,693.09
2024-05-09T02:03:07.207Z,693.09
2024-05-09T02:04:02.626Z,693.03
2024-05-09T02:04:57.428Z,693.07
2024-05-09T02:05:52.600Z,693.11
2024-05-09T02:06:47.794Z,693.11
2024-05-09T02:07:42.925Z,693.03
2024-05-09T02:08:38.182Z,692.99
2024-05-09T02:09:33.487Z,692.97
2024-05-09T02:10:32.572Z,692.94
2024-05-09T02:11:23.781Z,692.92
2024-05-09T02:12:19.086Z,692.92
2024-05-09T02:13:14.078Z,692.94
2024-05-09T02:14:09.338Z,692.95
2024-05-09T02:15:04.508Z,692.97
2024-05-09T02:15:59.700Z,693.03
2024-05-09T02:16:55.093Z,693.05
2024-05-09T02:17:50.699Z,693.09
2024-05-09T02:18:45.381Z,693.13
2024-05-09T02:19:40.650Z,693.15
2024-05-09T02:20:36.930Z,693.15
2024-05-09T02:21:30.889Z,693.17
2024-05-09T02:22:26.090Z,693.19
2024-05-09T02:23:21.297Z,693.19
2024-05-09T02:24:16.444Z,693.19
2024-05-09T02:25:11.706Z,693.21
2024-05-09T02:26:06.956Z,693.21
2024-05-09T02:27:02.253Z,693.23
2024-05-09T02:27:57.309Z,693.27
2024-05-09T02:28:52.541Z,693.25
2024-05-09T02:29:47.747Z,693.23
2024-05-09T02:30:42.969Z,693.21
2024-05-09T02:31:38.124Z,693.19
2024-05-09T02:32:33.402Z,693.17
2024-05-09T02:33:28.708Z,693.13
2024-05-09T02:34:23.779Z,693.11
2024-05-09T02:35:19.062Z,693.07
2024-05-09T02:36:14.088Z,693.07
2024-05-09T02:37:09.405Z,693.03
2024-05-09T02:38:04.534Z,693.01
2024-05-09T02:38:59.714Z,693.01
2024-05-09T02:39:54.942Z,692.99
2024-05-09T02:40:50.205Z,692.99
2024-05-09T02:41:46.228Z,692.97
2024-05-09T02:42:41.290Z,692.95
2024-05-09T02:43:36.460Z,692.95
2024-05-09T02:44:31.937Z,692.94
2024-05-09T02:45:27.034Z,692.92
2024-05-09T02:46:22.198Z,692.90
2024-05-09T02:47:17.483Z,692.90
2024-05-09T02:48:13.856Z,692.90
2024-05-09T02:49:07.963Z,692.88
2024-05-09T02:50:04.527Z,692.90
2024-05-09T02:50:58.352Z,692.90
2024-05-09T02:51:53.673Z,692.90
2024-05-09T02:52:48.791Z,692.94
2024-05-09T02:53:44.030Z,692.97
2024-05-09T02:54:39.250Z,692.99
2024-05-09T02:55:34.464Z,692.95
2024-05-09T02:56:29.707Z,692.99
2024-05-09T02:57:24.785Z,692.95
2024-05-09T02:58:20.024Z,692.97
2024-05-09T02:59:15.315Z,692.97
2024-05-09T03:00:18.457Z,692.97
2024-05-09T03:01:06.633Z,692.94
2024-05-09T03:02:00.959Z,692.99
2024-05-09T03:02:56.155Z,693.01
2024-05-09T03:03:51.800Z,693.01
2024-05-09T03:04:46.725Z,693.01
2024-05-09T03:05:42.297Z,692.97
2024-05-09T03:06:37.021Z,692.95
2024-05-09T03:07:32.213Z,692.95
2024-05-09T03:08:27.590Z,692.95
2024-05-09T03:09:22.636Z,692.99
2024-05-09T03:10:22.451Z,693.01
2024-05-09T03:11:14.233Z,692.97
2024-05-09T03:12:08.171Z,692.97
2024-05-09T03:13:03.233Z,692.99
2024-05-09T03:13:58.246Z,692.95
2024-05-09T03:14:53.408Z,692.95
2024-05-09T03:15:48.501Z,692.95
2024-05-09T03:16:43.585Z,692.94
2024-05-09T03:17:38.868Z,692.95
2024-05-09T03:18:33.785Z,692.94
2024-05-09T03:19:28.721Z,692.92
2024-05-09T03:20:27.736Z,692.94
2024-05-09T03:21:19.885Z,692.94
2024-05-09T03:22:13.745Z,692.94
2024-05-09T03:23:09.963Z,692.95
2024-05-09T03:24:03.940Z,692.94
2024-05-09T03:25:00.665Z,692.95
2024-05-09T03:25:55.934Z,692.94
2024-05-09T03:26:51.097Z,692.95
2024-05-09T03:27:46.297Z,692.99
2024-05-09T03:28:41.567Z,692.92
2024-05-09T03:29:36.839Z,692.94
2024-05-09T03:30:39.937Z,692.94
2024-05-09T03:31:28.418Z,692.94
2024-05-09T03:32:22.633Z,692.95
2024-05-09T03:33:19.557Z,692.95
2024-05-09T03:34:12.736Z,692.92
2024-05-09T03:35:07.899Z,692.94
2024-05-09T03:36:03.173Z,692.95
2024-05-09T03:36:58.060Z,692.95
2024-05-09T03:37:53.100Z,692.95
2024-05-09T03:38:48.111Z,692.94
2024-05-09T03:39:43.107Z,692.95
2024-05-09T03:40:38.522Z,692.92
2024-05-09T03:41:34.506Z,692.90
2024-05-09T03:42:29.539Z,692.88
2024-05-09T03:43:25.368Z,692.90
2024-05-09T03:44:20.672Z,692.90
2024-05-09T03:45:16.180Z,692.92
2024-05-09T03:46:11.925Z,692.94
2024-05-09T03:47:07.149Z,692.94
2024-05-09T03:48:02.479Z,692.92
2024-05-09T03:48:58.875Z,692.92
2024-05-09T03:49:54.211Z,692.90
2024-05-09T03:50:50.058Z,692.88
2024-05-09T03:51:45.286Z,692.82
2024-05-09T03:52:40.600Z,692.80
2024-05-09T03:53:36.436Z,692.71
2024-05-09T03:54:31.635Z,692.76
2024-05-09T03:55:27.381Z,692.71
2024-05-09T03:56:22.739Z,692.67
2024-05-09T03:57:17.946Z,692.65
2024-05-09T03:58:13.664Z,692.65
2024-05-09T03:59:09.035Z,692.67
2024-05-09T04:00:07.354Z,692.69
2024-05-09T04:01:00.777Z,692.67
2024-05-09T04:01:56.077Z,692.71
2024-05-09T04:02:51.888Z,692.76
2024-05-09T04:03:47.366Z,692.80
2024-05-09T04:04:42.782Z,692.84
2024-05-09T04:05:38.616Z,692.82
2024-05-09T04:06:33.843Z,692.88
2024-05-09T04:07:29.755Z,692.86
2024-05-09T04:08:24.995Z,692.80
2024-05-09T04:09:20.382Z,692.76
2024-05-09T04:10:24.059Z,692.80
2024-05-09T04:11:12.767Z,692.86
2024-05-09T04:12:07.066Z,692.88
2024-05-09T04:13:02.490Z,692.92
2024-05-09T04:13:57.109Z,692.90
2024-05-09T04:14:52.070Z,692.90
2024-05-09T04:15:47.185Z,692.88
2024-05-09T04:16:42.175Z,692.88
2024-05-09T04:17:37.395Z,692.84
2024-05-09T04:18:32.470Z,692.88
2024-05-09T04:19:27.609Z,692.82
2024-05-09T04:20:33.098Z,692.82
2024-05-09T04:21:18.710Z,692.84
2024-05-09T04:22:12.626Z,692.86
2024-05-09T04:23:09.831Z,692.86
2024-05-09T04:24:04.781Z,692.84
2024-05-09T04:24:59.777Z,692.82
2024-05-09T04:25:55.119Z,692.84
2024-05-09T04:26:49.937Z,692.88
2024-05-09T04:27:45.032Z,692.88
2024-05-09T04:28:40.158Z,692.84
2024-05-09T04:29:35.371Z,692.84
2024-05-09T04:30:37.129Z,692.84
2024-05-09T04:31:26.479Z,692.82
2024-05-09T04:32:20.645Z,692.84
2024-05-09T04:33:15.978Z,692.82
2024-05-09T04:34:11.191Z,692.82
2024-05-09T04:35:06.601Z,692.78
2024-05-09T04:36:02.430Z,692.71
2024-05-09T04:36:57.596Z,692.78
2024-05-09T04:37:53.327Z,692.78
2024-05-09T04:38:48.708Z,692.78
2024-05-09T04:39:44.154Z,692.78
2024-05-09T04:40:39.886Z,692.78
2024-05-09T04:41:35.372Z,692.76
2024-05-09T04:42:30.615Z,692.82
2024-05-09T04:43:26.883Z,692.88
2024-05-09T04:44:22.322Z,692.90
2024-05-09T04:45:17.978Z,692.92
2024-05-09T04:46:13.555Z,692.94
2024-05-09T04:47:08.912Z,692.92
2024-05-09T04:48:04.821Z,692.94
2024-05-09T04:49:00.013Z,692.92
2024-05-09T04:49:55.425Z,692.92
2024-05-09T04:50:50.902Z,692.90
2024-05-09T04:51:46.270Z,692.92
2024-05-09T04:52:43.068Z,692.88
2024-05-09T04:53:38.638Z,692.92
2024-05-09T04:54:36.479Z,692.90
2024-05-09T04:55:29.837Z,692.92
2024-05-09T04:56:25.450Z,692.94
2024-05-09T04:57:20.713Z,692.95
2024-05-09T04:58:16.562Z,692.97
2024-05-09T04:59:12.083Z,692.97
2024-05-09T05:00:14.320Z,692.94
2024-05-09T05:01:03.846Z,692.92
2024-05-09T05:01:57.865Z,692.88
2024-05-09T05:02:53.073Z,692.80
2024-05-09T05:03:48.136Z,692.78
2024-05-09T05:04:43.236Z,692.84
2024-05-09T05:05:38.343Z,692.82
2024-05-09T05:06:33.279Z,692.84
2024-05-09T05:07:28.471Z,692.86
2024-05-09T05:08:23.604Z,692.92
2024-05-09T05:09:20.383Z,692.92
2024-05-09T05:10:21.591Z,692.97
2024-05-09T05:11:12.726Z,692.97
2024-05-09T05:12:10.432Z,693.07
2024-05-09T05:13:05.631Z,693.11
2024-05-09T05:14:01.171Z,693.13
2024-05-09T05:14:56.470Z,693.13
2024-05-09T05:15:52.349Z,693.05
2024-05-09T05:16:47.606Z,692.99
2024-05-09T05:17:43.198Z,692.99
2024-05-09T05:18:38.600Z,692.86
2024-05-09T05:19:34.082Z,692.88
2024-05-09T05:20:34.149Z,692.86
2024-05-09T05:21:28.724Z,692.88
2024-05-09T05:22:24.042Z,692.88
2024-05-09T05:23:19.704Z,692.90
2024-05-09T05:24:15.019Z,692.88
2024-05-09T05:25:10.475Z,692.92
2024-05-09T05:26:06.037Z,692.94
2024-05-09T05:27:01.350Z,692.97
2024-05-09T05:27:56.797Z,693.01
2024-05-09T05:28:52.385Z,693.05
2024-05-09T05:29:47.753Z,693.11
2024-05-09T05:30:43.202Z,693.11
2024-05-09T05:31:38.665Z,693.13
2024-05-09T05:32:34.115Z,693.17
2024-05-09T05:33:29.632Z,693.19
2024-05-09T05:34:24.572Z,693.13
2024-05-09T05:35:19.646Z,693.07
2024-05-09T05:36:14.864Z,693.05
2024-05-09T05:37:09.684Z,693.09
2024-05-09T05:38:04.841Z,693.13
2024-05-09T05:38:59.781Z,693.17
2024-05-09T05:39:54.865Z,693.23
2024-05-09T05:40:50.094Z,693.29
2024-05-09T05:41:45.135Z,693.29
2024-05-09T05:42:40.208Z,693.29
2024-05-09T05:43:36.774Z,693.31
2024-05-09T05:44:32.119Z,693.27
2024-05-09T05:45:27.581Z,693.27
2024-05-09T05:46:23.190Z,693.29
2024-05-09T05:47:18.665Z,693.29
2024-05-09T05:48:14.319Z,693.31
2024-05-09T05:49:09.905Z,693.35
2024-05-09T05:50:09.364Z,693.41
2024-05-09T05:51:04.203Z,693.33
2024-05-09T05:51:56.238Z,693.33
2024-05-09T05:52:51.950Z,693.43
2024-05-09T05:53:47.261Z,693.51
2024-05-09T05:54:42.544Z,693.41
2024-05-09T05:55:38.077Z,693.43
2024-05-09T05:56:33.618Z,693.47
2024-05-09T05:57:29.024Z,693.51
2024-05-09T05:58:24.518Z,693.51
2024-05-09T05:59:19.955Z,693.49
2024-05-09T06:00:25.420Z,693.53
2024-05-09T06:01:12.240Z,693.49
2024-05-09T06:02:06.543Z,693.55
2024-05-09T06:03:02.175Z,693.62
2024-05-09T06:03:57.331Z,693.64
2024-05-09T06:04:52.789Z,693.74
2024-05-09T06:05:52.156Z,693.82
2024-05-09T06:06:47.399Z,693.86
2024-05-09T06:07:42.948Z,693.90
2024-05-09T06:08:38.539Z,693.90
2024-05-09T06:09:33.899Z,693.86
2024-05-09T06:10:37.531Z,693.92
2024-05-09T06:11:25.717Z,693.88
2024-05-09T06:12:19.707Z,693.90
2024-05-09T06:13:14.733Z,693.86
2024-05-09T06:14:09.774Z,693.82
2024-05-09T06:15:04.833Z,693.88
2024-05-09T06:15:59.908Z,693.94
2024-05-09T06:16:57.683Z,693.94
2024-05-09T06:17:50.254Z,694.02
2024-05-09T06:18:45.199Z,694.02
2024-05-09T06:19:40.252Z,694.08
2024-05-09T06:20:37.676Z,694.16
2024-05-09T06:21:30.270Z,694.27
2024-05-09T06:22:25.593Z,694.33
2024-05-09T06:23:21.423Z,694.39
2024-05-09T06:24:16.778Z,694.39
2024-05-09T06:25:12.141Z,694.45
2024-05-09T06:26:07.279Z,694.49
2024-05-09T06:27:02.234Z,694.47
2024-05-09T06:27:57.363Z,694.49
2024-05-09T06:28:53.563Z,694.47
2024-05-09T06:29:48.680Z,694.49
2024-05-09T06:30:43.804Z,694.45
2024-05-09T06:31:38.809Z,694.45
2024-05-09T06:32:34.231Z,694.51
2024-05-09T06:33:29.232Z,694.61
2024-05-09T06:34:24.031Z,694.55
2024-05-09T06:35:19.050Z,694.59
2024-05-09T06:36:14.318Z,694.59
2024-05-09T06:37:09.167Z,694.55
2024-05-09T06:38:04.397Z,694.57
2024-05-09T06:38:59.283Z,694.57
2024-05-09T06:39:54.405Z,694.65
2024-05-09T06:40:49.568Z,694.69
2024-05-09T06:41:44.634Z,694.69
2024-05-09T06:42:39.554Z,694.75
2024-05-09T06:43:34.560Z,694.81
2024-05-09T06:44:29.715Z,694.81
2024-05-09T06:45:24.680Z,694.88
2024-05-09T06:46:19.730Z,694.90
2024-05-09T06:47:14.718Z,694.94
2024-05-09T06:48:10.358Z,694.94
2024-05-09T06:49:04.883Z,694.98
2024-05-09T06:49:59.796Z,695.02
2024-05-09T06:50:54.931Z,695.06
2024-05-09T06:51:49.802Z,695.14
2024-05-09T06:52:44.818Z,695.20
2024-05-09T06:53:40.122Z,695.24
2024-05-09T06:54:35.425Z,695.20
2024-05-09T06:55:31.128Z,695.22
2024-05-09T06:56:26.457Z,695.47
2024-05-09T06:57:21.867Z,695.57
2024-05-09T06:58:21.430Z,695.70
2024-05-09T06:59:16.972Z,695.72
2024-05-09T07:00:18.610Z,695.68
2024-05-09T07:01:09.142Z,695.68
2024-05-09T07:02:03.360Z,695.82
2024-05-09T07:03:01.667Z,695.92
2024-05-09T07:03:54.785Z,696.02
2024-05-09T07:04:50.141Z,696.08
2024-05-09T07:05:46.655Z,696.22
2024-05-09T07:06:40.991Z,696.18
2024-05-09T07:07:36.505Z,696.25
2024-05-09T07:08:31.615Z,696.24
2024-05-09T07:09:26.674Z,696.29
2024-05-09T07:10:25.708Z,696.47
2024-05-09T07:11:17.717Z,696.63
2024-05-09T07:12:11.918Z,696.65
2024-05-09T07:13:06.761Z,696.71
2024-05-09T07:14:02.091Z,696.86
2024-05-09T07:14:57.054Z,696.94
2024-05-09T07:15:52.217Z,697.08
2024-05-09T07:16:47.458Z,696.86
2024-05-09T07:17:42.585Z,696.49
2024-05-09T07:18:37.651Z,696.39
2024-05-09T07:19:32.680Z,696.29
2024-05-09T07:20:34.106Z,696.25
2024-05-09T07:21:24.727Z,696.37
2024-05-09T07:22:18.760Z,696.63
2024-05-09T07:23:14.314Z,696.92
2024-05-09T07:24:09.724Z,697.10
2024-05-09T07:25:05.229Z,697.34
2024-05-09T07:26:00.838Z,697.51
2024-05-09T07:26:56.107Z,697.67
2024-05-09T07:27:51.688Z,697.86
2024-05-09T07:28:47.300Z,698.00
2024-05-09T07:29:42.834Z,697.96
2024-05-09T07:30:38.143Z,697.98
2024-05-09T07:31:33.434Z,698.02
2024-05-09T07:32:29.069Z,698.12
2024-05-09T07:33:24.862Z,698.08
2024-05-09T07:34:20.038Z,698.00
2024-05-09T07:35:14.991Z,698.00
2024-05-09T07:36:10.006Z,697.69
2024-05-09T07:37:05.072Z,697.61
2024-05-09T07:38:00.188Z,697.67
2024-05-09T07:38:55.101Z,697.90
2024-05-09T07:39:50.140Z,698.10
2024-05-09T07:40:45.457Z,698.27
2024-05-09T07:41:40.325Z,698.35
2024-05-09T07:42:35.487Z,698.33
2024-05-09T07:43:30.525Z,698.00
2024-05-09T07:44:28.794Z,697.59
2024-05-09T07:45:41.703Z,697.28
2024-05-09T07:47:14.149Z,697.32
2024-05-09T07:48:28.906Z,697.51
2024-05-09T07:49:44.918Z,697.81
2024-05-09T07:53:20.965Z,698.35
2024-05-09T07:53:34.555Z,698.55
2024-05-09T07:53:46.980Z,698.73
2024-05-09T07:54:38.865Z,698.67
2024-05-09T07:55:32.942Z,698.81
2024-05-09T07:56:28.222Z,698.96
2024-05-09T07:57:22.959Z,699.08
2024-05-09T07:58:18.007Z,698.96
2024-05-09T07:59:13.033Z,698.96
2024-05-09T08:00:11.919Z,699.06
2024-05-09T08:01:06.342Z,699.02
2024-05-09T08:02:00.844Z,698.94
2024-05-09T08:02:56.181Z,698.45
2024-05-09T08:03:51.773Z,698.02
2024-05-09T08:04:47.143Z,697.94
2024-05-09T08:05:42.772Z,698.16
2024-05-09T08:06:38.239Z,698.29
2024-05-09T08:07:33.522Z,698.16
2024-05-09T08:08:29.204Z,697.92
2024-05-09T08:09:24.607Z,697.75
2024-05-09T08:10:24.520Z,697.73
2024-05-09T08:11:16.691Z,697.73
2024-05-09T08:12:11.193Z,697.73
2024-05-09T08:13:06.823Z,698.02
2024-05-09T08:14:01.746Z,698.20
2024-05-09T08:14:56.754Z,698.49
2024-05-09T08:15:51.935Z,698.55
2024-05-09T08:16:46.882Z,698.73
2024-05-09T08:17:42.043Z,698.89
2024-05-09T08:18:37.236Z,698.61
2024-05-09T08:19:32.000Z,698.65
2024-05-09T08:20:31.218Z,698.77
2024-05-09T08:21:23.115Z,698.94
2024-05-09T08:22:17.105Z,699.14
2024-05-09T08:23:13.444Z,699.28
2024-05-09T08:24:09.111Z,699.22
2024-05-09T08:25:04.572Z,699.16
2024-05-09T08:26:00.328Z,699.14
2024-05-09T08:26:55.635Z,698.96
2024-05-09T08:27:51.186Z,699.10
2024-05-09T08:28:46.720Z,699.44
2024-05-09T08:29:42.325Z,699.69
2024-05-09T08:30:38.418Z,699.81
2024-05-09T08:31:33.927Z,699.51
2024-05-09T08:32:29.208Z,699.20
2024-05-09T08:33:24.220Z,698.92
2024-05-09T08:34:19.250Z,698.69
2024-05-09T08:35:14.213Z,698.71
2024-05-09T08:36:09.267Z,698.81
2024-05-09T08:37:12.911Z,698.73
2024-05-09T08:38:00.391Z,698.59
2024-05-09T08:38:54.396Z,698.35
2024-05-09T08:39:49.471Z,698.20
2024-05-09T08:40:44.626Z,698.45
2024-05-09T08:41:39.431Z,698.91
2024-05-09T08:42:34.534Z,699.32
2024-05-09T08:43:29.580Z,699.55
2024-05-09T08:44:24.741Z,699.65
2024-05-09T08:45:20.283Z,699.53
2024-05-09T08:46:15.924Z,699.40
2024-05-09T08:47:11.277Z,699.46
2024-05-09T08:48:10.162Z,699.59
2024-05-09T08:49:05.656Z,699.77
2024-05-09T08:50:01.414Z,700.03
2024-05-09T08:50:56.602Z,700.30
2024-05-09T08:51:52.018Z,700.28
2024-05-09T08:52:47.094Z,700.11
2024-05-09T08:53:42.090Z,700.09
2024-05-09T08:54:37.211Z,700.03
2024-05-09T08:55:32.260Z,699.89
2024-05-09T08:56:27.231Z,699.83
2024-05-09T08:57:22.464Z,699.93
2024-05-09T08:58:17.642Z,700.11
2024-05-09T08:59:12.559Z,700.22
2024-05-09T09:00:12.526Z,700.51
2024-05-09T09:01:03.660Z,700.67
2024-05-09T09:01:57.875Z,700.65
2024-05-09T09:02:52.865Z,700.57
2024-05-09T09:03:48.297Z,700.75
2024-05-09T09:04:43.786Z,700.91
2024-05-09T09:05:39.826Z,701.18
2024-05-09T09:06:34.915Z,701.30
2024-05-09T09:07:30.573Z,701.48
2024-05-09T09:08:25.617Z,701.46
2024-05-09T09:09:21.059Z,701.18
2024-05-09T09:10:24.948Z,701.22
2024-05-09T09:11:13.091Z,701.22
2024-05-09T09:12:10.188Z,701.28
2024-05-09T09:13:02.902Z,701.26
2024-05-09T09:13:58.363Z,701.14
2024-05-09T09:14:55.266Z,701.08
2024-05-09T09:15:48.793Z,701.04
2024-05-09T09:16:43.836Z,701.00
2024-05-09T09:17:38.958Z,700.79
2024-05-09T09:18:34.240Z,700.79
2024-05-09T09:19:29.095Z,700.95
2024-05-09T09:20:29.528Z,700.79
2024-05-09T09:21:20.154Z,700.63
2024-05-09T09:22:15.902Z,700.77
2024-05-09T09:23:10.870Z,701.00
2024-05-09T09:24:07.492Z,701.36
2024-05-09T09:25:00.971Z,701.42
2024-05-09T09:25:56.503Z,701.52
2024-05-09T09:26:52.100Z,701.85
2024-05-09T09:27:47.632Z,702.11
2024-05-09T09:28:43.032Z,701.83
2024-05-09T09:29:38.481Z,701.69
2024-05-09T09:30:37.453Z,701.75
2024-05-09T09:31:29.634Z,701.69
2024-05-09T09:32:24.923Z,701.48
2024-05-09T09:33:20.635Z,701.20
2024-05-09T09:34:16.148Z,700.98
2024-05-09T09:35:11.259Z,700.75
2024-05-09T09:36:08.409Z,700.83
2024-05-09T09:37:02.416Z,701.02
2024-05-09T09:37:57.934Z,700.95
2024-05-09T09:38:52.906Z,700.85
2024-05-09T09:39:49.207Z,700.85
2024-05-09T09:40:46.973Z,700.77
2024-05-09T09:41:39.058Z,700.49
2024-05-09T09:42:33.205Z,700.18
2024-05-09T09:43:28.190Z,699.85
2024-05-09T09:44:23.250Z,699.73
2024-05-09T09:45:20.964Z,699.59
2024-05-09T09:46:16.232Z,699.50
2024-05-09T09:47:11.275Z,699.57
2024-05-09T09:48:06.485Z,699.71
2024-05-09T09:49:02.276Z,699.65
2024-05-09T09:49:57.842Z,699.53
2024-05-09T09:50:53.262Z,699.44
2024-05-09T09:51:48.791Z,699.46
2024-05-09T09:52:44.439Z,699.55
2024-05-09T09:53:39.874Z,699.59
2024-05-09T09:54:35.378Z,699.69
2024-05-09T09:55:31.031Z,699.71
2024-05-09T09:56:26.543Z,699.77
2024-05-09T09:57:21.911Z,699.75
2024-05-09T09:58:17.843Z,699.65
2024-05-09T09:59:12.991Z,699.55
2024-05-09T10:00:11.786Z,699.42
2024-05-09T10:01:04.129Z,699.34
2024-05-09T10:01:59.620Z,699.28
2024-05-09T10:02:55.135Z,699.28
2024-05-09T10:03:50.507Z,699.32
2024-05-09T10:04:45.997Z,699.38
2024-05-09T10:05:44.265Z,699.42
2024-05-09T10:06:37.902Z,699.46
2024-05-09T10:07:32.334Z,699.44
2024-05-09T10:08:27.917Z,699.53
2024-05-09T10:09:23.508Z,699.71
2024-05-09T10:10:26.934Z,699.71
2024-05-09T10:11:15.079Z,699.81
2024-05-09T10:12:09.600Z,699.93
2024-05-09T10:13:04.528Z,700.03
2024-05-09T10:13:59.334Z,700.13
2024-05-09T10:14:54.397Z,700.24
2024-05-09T10:15:49.430Z,700.51
2024-05-09T10:16:44.494Z,700.81
2024-05-09T10:17:39.573Z,700.85
2024-05-09T10:18:34.910Z,700.71
2024-05-09T10:19:29.677Z,700.34
2024-05-09T10:20:28.099Z,700.18
2024-05-09T10:21:20.940Z,699.91
2024-05-09T10:22:17.823Z,699.65
2024-05-09T10:23:13.067Z,699.40
2024-05-09T10:24:08.086Z,699.38
2024-05-09T10:25:05.126Z,699.46
2024-05-09T10:25:58.076Z,699.63
2024-05-09T10:26:53.262Z,699.69
2024-05-09T10:27:48.444Z,699.79
2024-05-09T10:28:43.666Z,699.93
2024-05-09T10:29:38.608Z,699.97
2024-05-09T10:30:36.264Z,700.07
2024-05-09T10:31:29.661Z,700.13
2024-05-09T10:32:25.154Z,700.07
2024-05-09T10:33:21.022Z,699.95
2024-05-09T10:34:16.512Z,699.95
2024-05-09T10:35:11.802Z,700.09
2024-05-09T10:36:07.806Z,700.20
2024-05-09T10:37:04.977Z,700.24
2024-05-09T10:37:58.860Z,700.26
2024-05-09T10:38:54.294Z,700.36
2024-05-09T10:39:49.722Z,700.55
2024-05-09T10:40:45.753Z,700.71
2024-05-09T10:41:41.143Z,700.81
2024-05-09T10:42:36.685Z,700.77
2024-05-09T10:43:32.777Z,700.71
2024-05-09T10:44:28.377Z,700.63
2024-05-09T10:45:24.150Z,700.69
2024-05-09T10:46:20.130Z,700.59
2024-05-09T10:47:15.040Z,700.59
2024-05-09T10:48:11.157Z,700.69
2024-05-09T10:49:08.016Z,700.83
2024-05-09T10:50:02.553Z,700.85
2024-05-09T10:50:57.892Z,700.81
2024-05-09T10:51:53.336Z,700.53
2024-05-09T10:52:48.994Z,700.45
2024-05-09T10:53:44.555Z,700.55
2024-05-09T10:54:40.095Z,700.69
2024-05-09T10:55:36.116Z,700.96
2024-05-09T10:56:31.782Z,700.98
2024-05-09T10:57:27.733Z,701.04
2024-05-09T10:58:23.201Z,701.16
2024-05-09T10:59:18.740Z,701.04
2024-05-09T11:00:23.234Z,700.93
2024-05-09T11:01:10.971Z,700.89
2024-05-09T11:02:05.446Z,701.00
2024-05-09T11:03:00.924Z,701.20
2024-05-09T11:03:56.564Z,701.34
2024-05-09T11:04:52.347Z,701.44
2024-05-09T11:05:47.619Z,701.67
2024-05-09T11:06:43.003Z,701.91
2024-05-09T11:07:39.223Z,701.95
2024-05-09T11:08:34.711Z,701.95
2024-05-09T11:09:30.642Z,701.89
2024-05-09T11:10:33.355Z,701.93
2024-05-09T11:11:22.808Z,702.07
2024-05-09T11:12:17.936Z,702.21
2024-05-09T11:13:13.380Z,702.13
2024-05-09T11:14:08.665Z,701.61
2024-05-09T11:15:03.901Z,701.10
2024-05-09T11:15:59.749Z,700.93
2024-05-09T11:16:55.199Z,700.85
2024-05-09T11:17:51.146Z,701.12
2024-05-09T11:18:46.458Z,701.28
2024-05-09T11:19:42.051Z,701.40
2024-05-09T11:20:38.011Z,701.59
2024-05-09T11:21:33.339Z,701.58
2024-05-09T11:22:29.222Z,701.59
2024-05-09T11:23:24.603Z,701.75
2024-05-09T11:24:20.224Z,701.91
2024-05-09T11:25:16.033Z,702.05
2024-05-09T11:26:11.445Z,702.07
2024-05-09T11:27:07.316Z,701.83
2024-05-09T11:28:02.691Z,701.75
2024-05-09T11:28:57.974Z,701.61
2024-05-09T11:29:53.890Z,701.50
2024-05-09T11:30:49.253Z,701.40
2024-05-09T11:31:44.717Z,701.32
2024-05-09T11:32:41.042Z,701.30
2024-05-09T11:33:36.838Z,701.22
2024-05-09T11:34:32.458Z,701.22